Gioia Del Colle Airport LIBV

Flugplatz Daten

Name: Gioia Del Colle Airport

Ident: LIBV

Lat: 40,76779938

Long: 16,93330002

Platzhöhe: 1187 ft

IataCode:

City: Gioia Del Colle

Metar

2021/08/05 13:55
LIBV 051355Z 28014KT CAVOK 31/06 Q1009 RMK OVC SCT090 BKN220 VIS MIN 9999 WIND THR32 29014KT WIND THR14 28014KT BLU

Taf

2014/08/06 03:27
TAF TAF LIBV 060200Z 0603/0615 01013KT 9999 FEW040
TEMPO 0605/0609 7000 SHRA FEW020CB SCT035
Gewünschte Webcam nicht vorhanden? Dann fügen Sie eine hinzu. Sie wird dann so schnell wie möglich freigeschaltet
Url: Title: